NOZ1972 ENEV-ENGM
Flight info
| Callsign | NOZ1972 |
|---|---|
| Flight time | 1h 24m |
| Altitude | 36000 |
| Route | GEPTU DCT GUBAV DCT SOMUB DCT BELGU |
| Aircraft | B738/M-SDE2E3FGHIRWXY/LB1 |
Departure
| Time | 2026-05-06 13:57 |
|---|---|
| Airport | Harstad/Narvik Airport (ENEV) |
Arrival
| Time | 2026-05-06 15:22 |
|---|---|
| Airport | Oslo-Gardermoen International Airport (ENGM) |
| Time | Latitude | Longitude | Altitude | Speed | Heading |
|---|---|---|---|---|---|
| 2026-05-06 13:42 | 68.48974 | 16.68521 | 93 ft | 0 kts | 358° |
| 2026-05-06 13:48 | 68.48973 | 16.68521 | 93 ft | 2 kts | 358° |
| 2026-05-06 13:49 | 68.48948 | 16.68522 | 93 ft | 4 kts | 0° |
| 2026-05-06 13:49 | 68.48922 | 16.68528 | 93 ft | 3 kts | 341° |
| 2026-05-06 13:49 | 68.48901 | 16.68546 | 92 ft | 4 kts | 343° |
| 2026-05-06 13:49 | 68.48881 | 16.68566 | 94 ft | 0 kts | 334° |
| 2026-05-06 13:52 | 68.48886 | 16.68548 | 95 ft | 4 kts | 303° |
| 2026-05-06 13:52 | 68.48890 | 16.68398 | 92 ft | 10 kts | 270° |
| 2026-05-06 13:53 | 68.48913 | 16.68224 | 91 ft | 10 kts | 334° |
| 2026-05-06 13:53 | 68.48995 | 16.68202 | 94 ft | 15 kts | 358° |
| 2026-05-06 13:53 | 68.49111 | 16.68190 | 94 ft | 18 kts | 357° |
| 2026-05-06 13:53 | 68.49238 | 16.68175 | 93 ft | 18 kts | 357° |
| 2026-05-06 13:54 | 68.49362 | 16.68161 | 93 ft | 18 kts | 358° |
| 2026-05-06 13:54 | 68.49484 | 16.68151 | 95 ft | 18 kts | 357° |
| 2026-05-06 13:54 | 68.49615 | 16.68135 | 93 ft | 19 kts | 358° |
| 2026-05-06 13:54 | 68.49744 | 16.68120 | 93 ft | 19 kts | 358° |
| 2026-05-06 13:55 | 68.49882 | 16.68104 | 93 ft | 21 kts | 358° |
| 2026-05-06 13:55 | 68.50037 | 16.68085 | 94 ft | 23 kts | 357° |
| 2026-05-06 13:55 | 68.50205 | 16.68065 | 95 ft | 25 kts | 358° |
| 2026-05-06 13:55 | 68.50350 | 16.68024 | 97 ft | 17 kts | 332° |
| 2026-05-06 13:56 | 68.50376 | 16.67749 | 95 ft | 14 kts | 249° |
| 2026-05-06 13:56 | 68.50291 | 16.67697 | 96 ft | 11 kts | 178° |
| 2026-05-06 13:56 | 68.50286 | 16.67697 | 95 ft | 0 kts | 178° |
| 2026-05-06 13:57 | 68.50195 | 16.67705 | 93 ft | 44 kts | 178° |
| 2026-05-06 13:57 | 68.49572 | 16.67783 | 94 ft | 132 kts | 177° |
| 2026-05-06 13:57 | 68.48509 | 16.67949 | 663 ft | 150 kts | 176° |
| 2026-05-06 13:57 | 68.47481 | 16.68035 | 1839 ft | 149 kts | 179° |
| 2026-05-06 13:58 | 68.46369 | 16.68073 | 2561 ft | 173 kts | 179° |
| 2026-05-06 13:58 | 68.45079 | 16.68103 | 3311 ft | 194 kts | 180° |
| 2026-05-06 13:58 | 68.43749 | 16.67994 | 4483 ft | 189 kts | 192° |
| 2026-05-06 13:58 | 68.42542 | 16.66186 | 5052 ft | 218 kts | 231° |
| 2026-05-06 13:59 | 68.42021 | 16.62172 | 5467 ft | 238 kts | 274° |
| 2026-05-06 13:59 | 68.42575 | 16.57813 | 5878 ft | 258 kts | 303° |
| 2026-05-06 13:59 | 68.43444 | 16.53487 | 6540 ft | 267 kts | 283° |
| 2026-05-06 13:59 | 68.43301 | 16.48538 | 7358 ft | 267 kts | 245° |
| 2026-05-06 14:00 | 68.42244 | 16.44396 | 8236 ft | 269 kts | 233° |
| 2026-05-06 14:00 | 68.41303 | 16.39985 | 9033 ft | 272 kts | 247° |
| 2026-05-06 14:00 | 68.40610 | 16.35195 | 9885 ft | 274 kts | 246° |
| 2026-05-06 14:00 | 68.39476 | 16.30962 | 10437 ft | 288 kts | 220° |
| 2026-05-06 14:01 | 68.37790 | 16.27593 | 10657 ft | 312 kts | 217° |
| 2026-05-06 14:01 | 68.36060 | 16.23832 | 10863 ft | 333 kts | 220° |
| 2026-05-06 14:01 | 68.34277 | 16.19688 | 11399 ft | 343 kts | 221° |
| 2026-05-06 14:01 | 68.32470 | 16.15418 | 12141 ft | 346 kts | 222° |
| 2026-05-06 14:02 | 68.30650 | 16.11109 | 12937 ft | 349 kts | 222° |
| 2026-05-06 14:02 | 68.28773 | 16.06905 | 13683 ft | 352 kts | 218° |
| 2026-05-06 14:02 | 68.26805 | 16.02894 | 14354 ft | 356 kts | 217° |
| 2026-05-06 14:02 | 68.24811 | 15.98914 | 15058 ft | 358 kts | 217° |
| 2026-05-06 14:03 | 68.22805 | 15.94900 | 15757 ft | 361 kts | 217° |
| 2026-05-06 14:03 | 68.20786 | 15.90838 | 16445 ft | 364 kts | 217° |
| 2026-05-06 14:03 | 68.18756 | 15.86736 | 17115 ft | 367 kts | 217° |
| 2026-05-06 14:03 | 68.16712 | 15.82596 | 17786 ft | 370 kts | 217° |
| 2026-05-06 14:04 | 68.14647 | 15.78421 | 18406 ft | 372 kts | 217° |
| 2026-05-06 14:04 | 68.12568 | 15.74228 | 18972 ft | 376 kts | 217° |
| 2026-05-06 14:04 | 68.10412 | 15.70193 | 19489 ft | 380 kts | 210° |
| 2026-05-06 14:04 | 68.08017 | 15.67096 | 20038 ft | 384 kts | 203° |
| 2026-05-06 14:05 | 68.05538 | 15.64414 | 20614 ft | 386 kts | 202° |
| 2026-05-06 14:05 | 68.03056 | 15.61808 | 21157 ft | 389 kts | 202° |
| 2026-05-06 14:05 | 68.00505 | 15.59082 | 21733 ft | 391 kts | 202° |
| 2026-05-06 14:05 | 67.97976 | 15.56310 | 22208 ft | 395 kts | 203° |
| 2026-05-06 14:06 | 67.95458 | 15.53497 | 22653 ft | 400 kts | 203° |
| 2026-05-06 14:06 | 67.92860 | 15.50568 | 23243 ft | 401 kts | 203° |
| 2026-05-06 14:06 | 67.90291 | 15.47661 | 23702 ft | 403 kts | 203° |
| 2026-05-06 14:06 | 67.87733 | 15.44768 | 24073 ft | 407 kts | 203° |
| 2026-05-06 14:07 | 67.85118 | 15.41817 | 24428 ft | 410 kts | 203° |
| 2026-05-06 14:07 | 67.82473 | 15.38843 | 24790 ft | 414 kts | 203° |
| 2026-05-06 14:07 | 67.79819 | 15.35872 | 25200 ft | 415 kts | 203° |
| 2026-05-06 14:07 | 67.77111 | 15.33171 | 25609 ft | 417 kts | 198° |
| 2026-05-06 14:08 | 67.74314 | 15.30967 | 25949 ft | 421 kts | 196° |
| 2026-05-06 14:08 | 67.71472 | 15.28937 | 26277 ft | 424 kts | 195° |
| 2026-05-06 14:08 | 67.68608 | 15.26939 | 26613 ft | 427 kts | 195° |
| 2026-05-06 14:08 | 67.65735 | 15.24917 | 26947 ft | 429 kts | 196° |
| 2026-05-06 14:09 | 67.62839 | 15.22841 | 27276 ft | 432 kts | 196° |
| 2026-05-06 14:09 | 67.59936 | 15.20726 | 27585 ft | 435 kts | 196° |
| 2026-05-06 14:09 | 67.57013 | 15.18574 | 27887 ft | 437 kts | 197° |
| 2026-05-06 14:09 | 67.54074 | 15.16399 | 28195 ft | 440 kts | 197° |
| 2026-05-06 14:10 | 67.51115 | 15.14206 | 28493 ft | 442 kts | 197° |
| 2026-05-06 14:10 | 67.48185 | 15.12036 | 28769 ft | 445 kts | 197° |
| 2026-05-06 14:10 | 67.45160 | 15.09800 | 29054 ft | 447 kts | 197° |
| 2026-05-06 14:10 | 67.42202 | 15.07621 | 29426 ft | 447 kts | 197° |
| 2026-05-06 14:11 | 67.39206 | 15.05420 | 29897 ft | 446 kts | 197° |
| 2026-05-06 14:11 | 67.36227 | 15.03239 | 30239 ft | 445 kts | 197° |
| 2026-05-06 14:11 | 67.33240 | 15.01057 | 30504 ft | 446 kts | 197° |
| 2026-05-06 14:11 | 67.30245 | 14.98875 | 30761 ft | 447 kts | 197° |
| 2026-05-06 14:12 | 67.27256 | 14.96703 | 31060 ft | 447 kts | 197° |
| 2026-05-06 14:12 | 67.24263 | 14.94535 | 31363 ft | 446 kts | 197° |
| 2026-05-06 14:12 | 67.21272 | 14.92372 | 31632 ft | 447 kts | 197° |
| 2026-05-06 14:12 | 67.19249 | 14.90914 | 31807 ft | 447 kts | 197° |
| 2026-05-06 14:13 | 67.16291 | 14.88785 | 32085 ft | 447 kts | 197° |
| 2026-05-06 14:13 | 67.13292 | 14.86632 | 32354 ft | 447 kts | 197° |
| 2026-05-06 14:13 | 67.10288 | 14.84481 | 32615 ft | 448 kts | 197° |
| 2026-05-06 14:13 | 67.07290 | 14.82341 | 32886 ft | 448 kts | 197° |
| 2026-05-06 14:14 | 67.04283 | 14.80200 | 33154 ft | 448 kts | 197° |
| 2026-05-06 14:14 | 67.01289 | 14.78073 | 33420 ft | 448 kts | 197° |
| 2026-05-06 14:14 | 66.98278 | 14.75940 | 33680 ft | 448 kts | 197° |
| 2026-05-06 14:14 | 66.95264 | 14.73809 | 33918 ft | 448 kts | 197° |
| 2026-05-06 14:15 | 66.92257 | 14.71689 | 34115 ft | 448 kts | 197° |
| 2026-05-06 14:15 | 66.89286 | 14.69599 | 34306 ft | 448 kts | 197° |
| 2026-05-06 14:15 | 66.86274 | 14.67486 | 34495 ft | 449 kts | 197° |
| 2026-05-06 14:15 | 66.83261 | 14.65379 | 34676 ft | 449 kts | 197° |
| 2026-05-06 14:16 | 66.80256 | 14.63282 | 34890 ft | 448 kts | 197° |
| 2026-05-06 14:16 | 66.77249 | 14.61189 | 35093 ft | 448 kts | 197° |
| 2026-05-06 14:16 | 66.74235 | 14.59096 | 35291 ft | 449 kts | 197° |
| 2026-05-06 14:16 | 66.71222 | 14.57010 | 35496 ft | 449 kts | 197° |
| 2026-05-06 14:17 | 66.68211 | 14.54929 | 35689 ft | 449 kts | 197° |
| 2026-05-06 14:17 | 66.65191 | 14.52849 | 35849 ft | 449 kts | 197° |
| 2026-05-06 14:17 | 66.59127 | 14.48685 | 35874 ft | 452 kts | 197° |
| 2026-05-06 14:18 | 66.53081 | 14.44557 | 35867 ft | 449 kts | 197° |
| 2026-05-06 14:18 | 66.47003 | 14.40426 | 35889 ft | 455 kts | 197° |
| 2026-05-06 14:19 | 66.40848 | 14.36262 | 35886 ft | 461 kts | 197° |
| 2026-05-06 14:19 | 66.34632 | 14.32081 | 35889 ft | 465 kts | 197° |
| 2026-05-06 14:20 | 66.28399 | 14.27911 | 35886 ft | 468 kts | 197° |
| 2026-05-06 14:20 | 66.22093 | 14.23713 | 35876 ft | 469 kts | 197° |
| 2026-05-06 14:21 | 66.15773 | 14.19528 | 35884 ft | 470 kts | 197° |
| 2026-05-06 14:21 | 66.09431 | 14.15350 | 35880 ft | 471 kts | 197° |
| 2026-05-06 14:22 | 66.03093 | 14.11195 | 35879 ft | 471 kts | 197° |
| 2026-05-06 14:22 | 65.96756 | 14.07063 | 35873 ft | 470 kts | 197° |
| 2026-05-06 14:23 | 65.90480 | 14.02990 | 35866 ft | 469 kts | 197° |
| 2026-05-06 14:23 | 65.84172 | 13.98915 | 35889 ft | 468 kts | 197° |
| 2026-05-06 14:24 | 65.77874 | 13.94863 | 35886 ft | 468 kts | 197° |
| 2026-05-06 14:24 | 65.71769 | 13.89537 | 35897 ft | 465 kts | 204° |
| 2026-05-06 14:25 | 65.65779 | 13.83555 | 35898 ft | 465 kts | 204° |
| 2026-05-06 14:25 | 65.59778 | 13.77647 | 35883 ft | 465 kts | 204° |
| 2026-05-06 14:26 | 65.53773 | 13.71867 | 35890 ft | 465 kts | 204° |
| 2026-05-06 14:26 | 65.47755 | 13.66147 | 35896 ft | 464 kts | 204° |
| 2026-05-06 14:27 | 65.41774 | 13.60496 | 35894 ft | 465 kts | 204° |
| 2026-05-06 14:27 | 65.35743 | 13.54824 | 35901 ft | 465 kts | 204° |
| 2026-05-06 14:28 | 65.29713 | 13.49179 | 35889 ft | 464 kts | 204° |
| 2026-05-06 14:28 | 65.23697 | 13.43573 | 35904 ft | 464 kts | 204° |
| 2026-05-06 14:29 | 65.17673 | 13.37986 | 35910 ft | 464 kts | 204° |
| 2026-05-06 14:29 | 65.11650 | 13.32427 | 35904 ft | 465 kts | 204° |
| 2026-05-06 14:30 | 65.05655 | 13.26923 | 35909 ft | 464 kts | 203° |
| 2026-05-06 14:30 | 64.99633 | 13.21420 | 35917 ft | 464 kts | 203° |
| 2026-05-06 14:31 | 64.93605 | 13.15937 | 35906 ft | 464 kts | 203° |
| 2026-05-06 14:31 | 64.87573 | 13.10478 | 35925 ft | 464 kts | 203° |
| 2026-05-06 14:32 | 64.81545 | 13.05048 | 35920 ft | 464 kts | 203° |
| 2026-05-06 14:32 | 64.75506 | 12.99634 | 35927 ft | 464 kts | 203° |
| 2026-05-06 14:33 | 64.69503 | 12.94278 | 35919 ft | 464 kts | 203° |
| 2026-05-06 14:33 | 64.63479 | 12.88930 | 35928 ft | 463 kts | 203° |
| 2026-05-06 14:34 | 64.57490 | 12.83638 | 35923 ft | 462 kts | 203° |
| 2026-05-06 14:34 | 64.51467 | 12.78340 | 35936 ft | 462 kts | 203° |
| 2026-05-06 14:35 | 64.45453 | 12.73074 | 35928 ft | 462 kts | 203° |
| 2026-05-06 14:35 | 64.39432 | 12.67830 | 35925 ft | 461 kts | 203° |
| 2026-05-06 14:36 | 64.33467 | 12.62657 | 35941 ft | 461 kts | 203° |
| 2026-05-06 14:36 | 64.27451 | 12.57464 | 35956 ft | 460 kts | 203° |
| 2026-05-06 14:37 | 64.21442 | 12.52301 | 35968 ft | 460 kts | 203° |
| 2026-05-06 14:37 | 64.15435 | 12.47163 | 35980 ft | 460 kts | 203° |
| 2026-05-06 14:38 | 64.09430 | 12.42051 | 35983 ft | 460 kts | 203° |
| 2026-05-06 14:38 | 64.03458 | 12.36990 | 35988 ft | 460 kts | 203° |
| 2026-05-06 14:39 | 63.97440 | 12.31914 | 35938 ft | 461 kts | 203° |
| 2026-05-06 14:39 | 63.91425 | 12.26865 | 35953 ft | 460 kts | 203° |
| 2026-05-06 14:40 | 63.85416 | 12.21842 | 35947 ft | 461 kts | 203° |
| 2026-05-06 14:40 | 63.79395 | 12.16833 | 35949 ft | 459 kts | 203° |
| 2026-05-06 14:41 | 63.73398 | 12.11866 | 35946 ft | 458 kts | 203° |
| 2026-05-06 14:41 | 63.67406 | 12.06927 | 35957 ft | 458 kts | 203° |
| 2026-05-06 14:42 | 63.61428 | 12.02019 | 35954 ft | 458 kts | 203° |
| 2026-05-06 14:42 | 63.55474 | 11.97153 | 35963 ft | 458 kts | 203° |
| 2026-05-06 14:43 | 63.49487 | 11.92283 | 35946 ft | 456 kts | 203° |
| 2026-05-06 14:43 | 63.43530 | 11.87457 | 35964 ft | 455 kts | 203° |
| 2026-05-06 14:44 | 63.37564 | 11.82642 | 35972 ft | 455 kts | 203° |
| 2026-05-06 14:45 | 63.28478 | 11.76275 | 35971 ft | 458 kts | 198° |
| 2026-05-06 14:45 | 63.22313 | 11.72723 | 35964 ft | 457 kts | 198° |
| 2026-05-06 14:46 | 63.16162 | 11.69150 | 35961 ft | 456 kts | 198° |
| 2026-05-06 14:46 | 63.10072 | 11.65537 | 35952 ft | 456 kts | 199° |
| 2026-05-06 14:47 | 63.03947 | 11.61883 | 35963 ft | 455 kts | 199° |
| 2026-05-06 14:47 | 62.97820 | 11.58237 | 35948 ft | 455 kts | 199° |
| 2026-05-06 14:48 | 62.91709 | 11.54620 | 35946 ft | 454 kts | 199° |
| 2026-05-06 14:48 | 62.85606 | 11.51024 | 35923 ft | 454 kts | 199° |
| 2026-05-06 14:49 | 62.79504 | 11.47445 | 35913 ft | 454 kts | 199° |
| 2026-05-06 14:49 | 62.73447 | 11.43907 | 35909 ft | 454 kts | 199° |
| 2026-05-06 14:50 | 62.67335 | 11.40352 | 35891 ft | 454 kts | 199° |
| 2026-05-06 14:50 | 62.61255 | 11.36834 | 35857 ft | 445 kts | 199° |
| 2026-05-06 14:50 | 62.58301 | 11.35137 | 35875 ft | 433 kts | 199° |
| 2026-05-06 14:51 | 62.55402 | 11.33472 | 35926 ft | 429 kts | 199° |
| 2026-05-06 14:51 | 62.49661 | 11.30171 | 35946 ft | 427 kts | 199° |
| 2026-05-06 14:52 | 62.43921 | 11.26881 | 35929 ft | 426 kts | 199° |
| 2026-05-06 14:52 | 62.38172 | 11.23599 | 35460 ft | 432 kts | 199° |
| 2026-05-06 14:52 | 62.35324 | 11.21981 | 35124 ft | 425 kts | 199° |
| 2026-05-06 14:53 | 62.32472 | 11.20367 | 34685 ft | 422 kts | 199° |
| 2026-05-06 14:53 | 62.29647 | 11.18772 | 34275 ft | 419 kts | 199° |
| 2026-05-06 14:53 | 62.26838 | 11.17188 | 33838 ft | 416 kts | 199° |
| 2026-05-06 14:53 | 62.24049 | 11.15617 | 33357 ft | 412 kts | 200° |
| 2026-05-06 14:54 | 62.21292 | 11.14068 | 32913 ft | 407 kts | 200° |
| 2026-05-06 14:54 | 62.18567 | 11.12540 | 32524 ft | 402 kts | 200° |
| 2026-05-06 14:54 | 62.15873 | 11.11032 | 32097 ft | 397 kts | 200° |
| 2026-05-06 14:54 | 62.13222 | 11.09551 | 31725 ft | 392 kts | 201° |
| 2026-05-06 14:55 | 62.10588 | 11.08080 | 31316 ft | 389 kts | 201° |
| 2026-05-06 14:55 | 62.07982 | 11.06627 | 30875 ft | 385 kts | 201° |
| 2026-05-06 14:55 | 62.05439 | 11.05213 | 30567 ft | 379 kts | 202° |
| 2026-05-06 14:55 | 62.02904 | 11.03807 | 30167 ft | 374 kts | 202° |
| 2026-05-06 14:56 | 62.00411 | 11.02428 | 29781 ft | 367 kts | 203° |
| 2026-05-06 14:56 | 61.97925 | 11.01053 | 29410 ft | 361 kts | 203° |
| 2026-05-06 14:56 | 61.95548 | 10.99740 | 28992 ft | 356 kts | 203° |
| 2026-05-06 14:56 | 61.93170 | 10.98427 | 28587 ft | 351 kts | 203° |
| 2026-05-06 14:57 | 61.90830 | 10.97139 | 28253 ft | 344 kts | 203° |
| 2026-05-06 14:57 | 61.88528 | 10.95871 | 27872 ft | 339 kts | 203° |
| 2026-05-06 14:57 | 61.86261 | 10.94625 | 27508 ft | 335 kts | 203° |
| 2026-05-06 14:57 | 61.84016 | 10.93392 | 27149 ft | 331 kts | 204° |
| 2026-05-06 14:58 | 61.81801 | 10.92176 | 26786 ft | 327 kts | 204° |
| 2026-05-06 14:58 | 61.79614 | 10.90981 | 26419 ft | 324 kts | 204° |
| 2026-05-06 14:58 | 61.77447 | 10.89799 | 26083 ft | 319 kts | 204° |
| 2026-05-06 14:58 | 61.75312 | 10.88633 | 25742 ft | 315 kts | 205° |
| 2026-05-06 14:59 | 61.73201 | 10.87484 | 25408 ft | 311 kts | 205° |
| 2026-05-06 14:59 | 61.71817 | 10.86730 | 25182 ft | 309 kts | 205° |
| 2026-05-06 14:59 | 61.69738 | 10.85598 | 24831 ft | 307 kts | 205° |
| 2026-05-06 14:59 | 61.67677 | 10.84478 | 24512 ft | 304 kts | 205° |
| 2026-05-06 15:00 | 61.65638 | 10.83373 | 24171 ft | 301 kts | 205° |
| 2026-05-06 15:00 | 61.63609 | 10.82276 | 23855 ft | 298 kts | 205° |
| 2026-05-06 15:00 | 61.61606 | 10.81193 | 23528 ft | 296 kts | 205° |
| 2026-05-06 15:00 | 61.59617 | 10.80113 | 23164 ft | 293 kts | 205° |
| 2026-05-06 15:01 | 61.57652 | 10.79055 | 22845 ft | 291 kts | 205° |
| 2026-05-06 15:01 | 61.55696 | 10.78004 | 22525 ft | 289 kts | 205° |
| 2026-05-06 15:01 | 61.53740 | 10.76953 | 22227 ft | 294 kts | 204° |
| 2026-05-06 15:01 | 61.51734 | 10.75856 | 21870 ft | 308 kts | 204° |
| 2026-05-06 15:02 | 61.49637 | 10.74720 | 21478 ft | 311 kts | 204° |
| 2026-05-06 15:02 | 61.47555 | 10.73615 | 21188 ft | 305 kts | 204° |
| 2026-05-06 15:02 | 61.45514 | 10.72536 | 20867 ft | 301 kts | 204° |
| 2026-05-06 15:02 | 61.43502 | 10.71469 | 20549 ft | 296 kts | 205° |
| 2026-05-06 15:03 | 61.41514 | 10.70412 | 20214 ft | 293 kts | 205° |
| 2026-05-06 15:03 | 61.39547 | 10.69367 | 19898 ft | 290 kts | 205° |
| 2026-05-06 15:03 | 61.37600 | 10.68330 | 19578 ft | 287 kts | 205° |
| 2026-05-06 15:03 | 61.35675 | 10.67306 | 19268 ft | 285 kts | 205° |
| 2026-05-06 15:04 | 61.33758 | 10.66287 | 18949 ft | 283 kts | 204° |
| 2026-05-06 15:04 | 61.31859 | 10.65279 | 18629 ft | 281 kts | 204° |
| 2026-05-06 15:04 | 61.29962 | 10.64273 | 18307 ft | 280 kts | 204° |
| 2026-05-06 15:04 | 61.28076 | 10.63274 | 17937 ft | 279 kts | 204° |
| 2026-05-06 15:05 | 61.26193 | 10.62278 | 17566 ft | 280 kts | 203° |
| 2026-05-06 15:05 | 61.24313 | 10.61288 | 17408 ft | 276 kts | 203° |
| 2026-05-06 15:05 | 61.22468 | 10.60344 | 17268 ft | 280 kts | 200° |
| 2026-05-06 15:05 | 61.20453 | 10.60238 | 16741 ft | 306 kts | 177° |
| 2026-05-06 15:06 | 61.18389 | 10.61435 | 16380 ft | 310 kts | 171° |
| 2026-05-06 15:06 | 61.16330 | 10.62810 | 16013 ft | 310 kts | 169° |
| 2026-05-06 15:06 | 61.14284 | 10.64198 | 15662 ft | 309 kts | 169° |
| 2026-05-06 15:06 | 61.12239 | 10.65585 | 15338 ft | 308 kts | 168° |
| 2026-05-06 15:07 | 61.10203 | 10.66960 | 15006 ft | 307 kts | 167° |
| 2026-05-06 15:07 | 61.08178 | 10.68320 | 14680 ft | 305 kts | 167° |
| 2026-05-06 15:07 | 61.06163 | 10.69667 | 14364 ft | 304 kts | 166° |
| 2026-05-06 15:07 | 61.04154 | 10.71006 | 14041 ft | 302 kts | 166° |
| 2026-05-06 15:08 | 61.02154 | 10.72333 | 13720 ft | 301 kts | 165° |
| 2026-05-06 15:08 | 61.00162 | 10.73654 | 13353 ft | 300 kts | 165° |
| 2026-05-06 15:08 | 60.98206 | 10.74949 | 13029 ft | 298 kts | 165° |
| 2026-05-06 15:08 | 60.96218 | 10.76263 | 12717 ft | 294 kts | 165° |
| 2026-05-06 15:09 | 60.94301 | 10.77527 | 12400 ft | 292 kts | 165° |
| 2026-05-06 15:09 | 60.92365 | 10.78801 | 12072 ft | 291 kts | 165° |
| 2026-05-06 15:09 | 60.90438 | 10.80066 | 11751 ft | 290 kts | 165° |
| 2026-05-06 15:09 | 60.88522 | 10.81324 | 11429 ft | 288 kts | 165° |
| 2026-05-06 15:10 | 60.86615 | 10.82574 | 11124 ft | 286 kts | 165° |
| 2026-05-06 15:10 | 60.84725 | 10.83810 | 10823 ft | 285 kts | 165° |
| 2026-05-06 15:10 | 60.82841 | 10.85043 | 10519 ft | 283 kts | 165° |
| 2026-05-06 15:10 | 60.80966 | 10.86268 | 10255 ft | 281 kts | 165° |
| 2026-05-06 15:11 | 60.79132 | 10.87466 | 10142 ft | 273 kts | 165° |
| 2026-05-06 15:11 | 60.77346 | 10.88631 | 10013 ft | 266 kts | 165° |
| 2026-05-06 15:11 | 60.75622 | 10.89755 | 9869 ft | 260 kts | 165° |
| 2026-05-06 15:11 | 60.73876 | 10.90889 | 9581 ft | 259 kts | 165° |
| 2026-05-06 15:12 | 60.72189 | 10.91983 | 9316 ft | 257 kts | 165° |
| 2026-05-06 15:12 | 60.70487 | 10.93086 | 9051 ft | 255 kts | 165° |
| 2026-05-06 15:12 | 60.68799 | 10.94180 | 8785 ft | 254 kts | 165° |
| 2026-05-06 15:12 | 60.67123 | 10.95264 | 8519 ft | 252 kts | 165° |
| 2026-05-06 15:13 | 60.65454 | 10.96343 | 8269 ft | 253 kts | 165° |
| 2026-05-06 15:13 | 60.63757 | 10.97435 | 8018 ft | 259 kts | 165° |
| 2026-05-06 15:13 | 60.62023 | 10.98550 | 7753 ft | 264 kts | 165° |
| 2026-05-06 15:13 | 60.60258 | 10.99686 | 7473 ft | 265 kts | 165° |
| 2026-05-06 15:14 | 60.58505 | 11.00818 | 7227 ft | 263 kts | 165° |
| 2026-05-06 15:14 | 60.56759 | 11.01941 | 6981 ft | 261 kts | 165° |
| 2026-05-06 15:14 | 60.55033 | 11.03050 | 6716 ft | 260 kts | 165° |
| 2026-05-06 15:14 | 60.53308 | 11.04158 | 6449 ft | 259 kts | 165° |
| 2026-05-06 15:15 | 60.51599 | 11.05255 | 6276 ft | 254 kts | 165° |
| 2026-05-06 15:15 | 60.49932 | 11.06322 | 6137 ft | 248 kts | 165° |
| 2026-05-06 15:15 | 60.48312 | 11.07357 | 6027 ft | 241 kts | 165° |
| 2026-05-06 15:15 | 60.46744 | 11.08470 | 5880 ft | 238 kts | 155° |
| 2026-05-06 15:16 | 60.45526 | 11.10731 | 5659 ft | 239 kts | 125° |
| 2026-05-06 15:16 | 60.44568 | 11.13406 | 5438 ft | 238 kts | 131° |
| 2026-05-06 15:16 | 60.43487 | 11.15946 | 5191 ft | 238 kts | 133° |
| 2026-05-06 15:16 | 60.42405 | 11.18467 | 4949 ft | 237 kts | 131° |
| 2026-05-06 15:17 | 60.41332 | 11.20983 | 4695 ft | 235 kts | 131° |
| 2026-05-06 15:17 | 60.40199 | 11.23290 | 4442 ft | 227 kts | 150° |
| 2026-05-06 15:17 | 60.38743 | 11.23908 | 4216 ft | 211 kts | 196° |
| 2026-05-06 15:17 | 60.37453 | 11.22742 | 4082 ft | 198 kts | 207° |
| 2026-05-06 15:18 | 60.36189 | 11.21874 | 4008 ft | 187 kts | 197° |
| 2026-05-06 15:18 | 60.34971 | 11.21042 | 3786 ft | 182 kts | 202° |
| 2026-05-06 15:18 | 60.33787 | 11.20207 | 3559 ft | 181 kts | 200° |
| 2026-05-06 15:18 | 60.32608 | 11.19478 | 3322 ft | 179 kts | 199° |
| 2026-05-06 15:19 | 60.31409 | 11.18767 | 3057 ft | 179 kts | 199° |
| 2026-05-06 15:19 | 60.30231 | 11.18095 | 2829 ft | 173 kts | 200° |
| 2026-05-06 15:19 | 60.29106 | 11.17447 | 2582 ft | 164 kts | 200° |
| 2026-05-06 15:19 | 60.28017 | 11.16814 | 2376 ft | 162 kts | 198° |
| 2026-05-06 15:20 | 60.26936 | 11.16192 | 2145 ft | 162 kts | 199° |
| 2026-05-06 15:20 | 60.25848 | 11.15563 | 1925 ft | 163 kts | 199° |
| 2026-05-06 15:20 | 60.24767 | 11.14938 | 1680 ft | 158 kts | 200° |
| 2026-05-06 15:20 | 60.23740 | 11.14342 | 1465 ft | 152 kts | 199° |
| 2026-05-06 15:21 | 60.22733 | 11.13758 | 1251 ft | 151 kts | 198° |
| 2026-05-06 15:21 | 60.21743 | 11.13188 | 1071 ft | 147 kts | 197° |
| 2026-05-06 15:21 | 60.20750 | 11.12614 | 886 ft | 148 kts | 196° |
| 2026-05-06 15:21 | 60.19770 | 11.12049 | 696 ft | 148 kts | 195° |
| 2026-05-06 15:22 | 60.18910 | 11.11555 | 683 ft | 99 kts | 197° |
| 2026-05-06 15:22 | 60.18601 | 11.11366 | 682 ft | 21 kts | 202° |
| 2026-05-06 15:22 | 60.18471 | 11.11233 | 681 ft | 18 kts | 225° |
| 2026-05-06 15:22 | 60.18437 | 11.11029 | 681 ft | 16 kts | 279° |
| 2026-05-06 15:23 | 60.18514 | 11.10924 | 681 ft | 15 kts | 13° |
| 2026-05-06 15:23 | 60.18619 | 11.10983 | 681 ft | 17 kts | 16° |
| 2026-05-06 15:23 | 60.18750 | 11.11061 | 682 ft | 22 kts | 16° |
| 2026-05-06 15:23 | 60.18909 | 11.11154 | 682 ft | 26 kts | 15° |
| 2026-05-06 15:24 | 60.19087 | 11.11255 | 682 ft | 26 kts | 16° |
| 2026-05-06 15:24 | 60.19256 | 11.11354 | 681 ft | 24 kts | 16° |
| 2026-05-06 15:24 | 60.19377 | 11.11405 | 681 ft | 15 kts | 342° |
| 2026-05-06 15:24 | 60.19419 | 11.11228 | 682 ft | 14 kts | 286° |
| 2026-05-06 15:25 | 60.19446 | 11.11039 | 682 ft | 14 kts | 285° |
| 2026-05-06 15:25 | 60.19471 | 11.10861 | 682 ft | 13 kts | 285° |
| 2026-05-06 15:25 | 60.19497 | 11.10679 | 681 ft | 13 kts | 285° |
| 2026-05-06 15:25 | 60.19522 | 11.10505 | 679 ft | 12 kts | 286° |
| 2026-05-06 15:26 | 60.19497 | 11.10383 | 684 ft | 11 kts | 194° |
| 2026-05-06 15:26 | 60.19445 | 11.10354 | 684 ft | 0 kts | 195° |